sensor_id;sensor_type;location;lat;lon;timestamp;pressure;altitude;pressure_sealevel;temperature;humidity
3812;BME280;1921;49.368;11.068;2022-10-16T00:01:51;97537.66;;;16.66;100.00
3812;BME280;1921;49.368;11.068;2022-10-16T00:04:17;97544.91;;;16.71;100.00
3812;BME280;1921;49.368;11.068;2022-10-16T00:06:43;97454.94;;;16.12;100.00
3812;BME280;1921;49.368;11.068;2022-10-16T00:09:09;97571.97;;;16.84;100.00
3812;BME280;1921;49.368;11.068;2022-10-16T00:11:37;97584.03;;;16.92;100.00
3812;BME280;1921;49.368;11.068;2022-10-16T00:14:07;97525.94;;;16.62;100.00
3812;BME280;1921;49.368;11.068;2022-10-16T00:16:34;97537.88;;;16.64;100.00
3812;BME280;1921;49.368;11.068;2022-10-16T00:19:00;97536.94;;;16.59;100.00
3812;BME280;1921;49.368;11.068;2022-10-16T00:21:28;97523.72;;;16.40;100.00
3812;BME280;1921;49.368;11.068;2022-10-16T00:24:04;97558.78;;;16.59;100.00
3812;BME280;1921;49.368;11.068;2022-10-16T00:26:33;97576.72;;;16.69;100.00
3812;BME280;1921;49.368;11.068;2022-10-16T00:28:59;97564.06;;;16.59;100.00
3812;BME280;1921;49.368;11.068;2022-10-16T00:31:25;97569.84;;;16.68;100.00
3812;BME280;1921;49.368;11.068;2022-10-16T00:33:51;97583.44;;;16.72;100.00
3812;BME280;1921;49.368;11.068;2022-10-16T00:36:21;97585.84;;;16.73;100.00
3812;BME280;1921;49.368;11.068;2022-10-16T00:38:50;97567.09;;;16.56;100.00
3812;BME280;1921;49.368;11.068;2022-10-16T00:41:18;97565.28;;;16.57;100.00
3812;BME280;1921;49.368;11.068;2022-10-16T00:43:53;97601.19;;;16.76;100.00
3812;BME280;1921;49.368;11.068;2022-10-16T00:46:42;97614.28;;;16.83;100.00
3812;BME280;1921;49.368;11.068;2022-10-16T00:49:15;97600.22;;;16.71;100.00
3812;BME280;1921;49.368;11.068;2022-10-16T00:51:50;97589.25;;;16.49;100.00
3812;BME280;1921;49.368;11.068;2022-10-16T00:54:23;97576.22;;;16.35;100.00
3812;BME280;1921;49.368;11.068;2022-10-16T00:56:51;97573.25;;;16.25;100.00
3812;BME280;1921;49.368;11.068;2022-10-16T01:01:57;97603.69;;;16.39;100.00
3812;BME280;1921;49.368;11.068;2022-10-16T01:04:25;97606.38;;;16.33;100.00
3812;BME280;1921;49.368;11.068;2022-10-16T01:10:30;97612.25;;;16.35;100.00
3812;BME280;1921;49.368;11.068;2022-10-16T01:13:27;97601.66;;;16.17;100.00
3812;BME280;1921;49.368;11.068;2022-10-16T01:16:00;97608.06;;;16.21;100.00
3812;BME280;1921;49.368;11.068;2022-10-16T01:18:50;97620.78;;;16.30;100.00
3812;BME280;1921;49.368;11.068;2022-10-16T01:27:25;97618.94;;;16.31;100.00
3812;BME280;1921;49.368;11.068;2022-10-16T01:30:04;97615.47;;;16.37;100.00
3812;BME280;1921;49.368;11.068;2022-10-16T01:32:40;97476.44;;;15.46;100.00
3812;BME280;1921;49.368;11.068;2022-10-16T01:35:20;97619.94;;;16.36;100.00
3812;BME280;1921;49.368;11.068;2022-10-16T01:38:14;97608.06;;;16.27;100.00
3812;BME280;1921;49.368;11.068;2022-10-16T01:40:46;97599.44;;;16.13;100.00
3812;BME280;1921;49.368;11.068;2022-10-16T01:43:19;97607.31;;;16.13;100.00
3812;BME280;1921;49.368;11.068;2022-10-16T01:45:46;97618.81;;;16.19;100.00
3812;BME280;1921;49.368;11.068;2022-10-16T01:48:17;97633.00;;;16.18;100.00
3812;BME280;1921;49.368;11.068;2022-10-16T01:51:08;97629.19;;;16.14;100.00
3812;BME280;1921;49.368;11.068;2022-10-16T01:53:36;97612.84;;;16.05;100.00
3812;BME280;1921;49.368;11.068;2022-10-16T01:56:07;97603.72;;;16.08;100.00
3812;BME280;1921;49.368;11.068;2022-10-16T01:58:38;97629.97;;;16.21;100.00
3812;BME280;1921;49.368;11.068;2022-10-16T02:01:07;97582.56;;;15.96;100.00
3812;BME280;1921;49.368;11.068;2022-10-16T02:03:35;97666.88;;;16.39;100.00
3812;BME280;1921;49.368;11.068;2022-10-16T02:06:03;97628.19;;;16.15;100.00
3812;BME280;1921;49.368;11.068;2022-10-16T02:08:30;97618.88;;;16.12;100.00
3812;BME280;1921;49.368;11.068;2022-10-16T02:10:57;97607.81;;;16.04;100.00
3812;BME280;1921;49.368;11.068;2022-10-16T02:13:34;97653.28;;;16.42;100.00
3812;BME280;1921;49.368;11.068;2022-10-16T02:16:02;97628.28;;;16.27;100.00
3812;BME280;1921;49.368;11.068;2022-10-16T02:18:27;97575.63;;;16.02;100.00
3812;BME280;1921;49.368;11.068;2022-10-16T02:24:10;97657.88;;;16.54;100.00
3812;BME280;1921;49.368;11.068;2022-10-16T02:26:52;97652.00;;;16.52;100.00
3812;BME280;1921;49.368;11.068;2022-10-16T02:29:24;97653.81;;;16.51;100.00
3812;BME280;1921;49.368;11.068;2022-10-16T02:31:55;97608.88;;;16.28;100.00
3812;BME280;1921;49.368;11.068;2022-10-16T02:34:23;97607.88;;;16.22;100.00
3812;BME280;1921;49.368;11.068;2022-10-16T02:36:51;97637.06;;;16.46;100.00
3812;BME280;1921;49.368;11.068;2022-10-16T02:39:18;97623.13;;;16.38;100.00
3812;BME280;1921;49.368;11.068;2022-10-16T02:41:45;97608.41;;;16.31;100.00
3812;BME280;1921;49.368;11.068;2022-10-16T02:44:11;97583.44;;;16.15;100.00
3812;BME280;1921;49.368;11.068;2022-10-16T02:46:37;97607.84;;;16.29;100.00
3812;BME280;1921;49.368;11.068;2022-10-16T02:49:02;97609.06;;;16.26;100.00
3812;BME280;1921;49.368;11.068;2022-10-16T02:51:28;97591.50;;;16.20;100.00
3812;BME280;1921;49.368;11.068;2022-10-16T02:53:54;97603.59;;;16.28;100.00
3812;BME280;1921;49.368;11.068;2022-10-16T02:56:20;97630.19;;;16.45;100.00
3812;BME280;1921;49.368;11.068;2022-10-16T02:58:45;97629.59;;;16.42;100.00
3812;BME280;1921;49.368;11.068;2022-10-16T03:01:11;97587.06;;;16.14;100.00
3812;BME280;1921;49.368;11.068;2022-10-16T03:03:38;97596.97;;;16.19;100.00
3812;BME280;1921;49.368;11.068;2022-10-16T03:06:04;97583.63;;;16.13;100.00
3812;BME280;1921;49.368;11.068;2022-10-16T03:08:31;97605.00;;;16.30;100.00
3812;BME280;1921;49.368;11.068;2022-10-16T03:10:57;97635.03;;;16.48;100.00
3812;BME280;1921;49.368;11.068;2022-10-16T03:13:23;97638.06;;;16.45;100.00
3812;BME280;1921;49.368;11.068;2022-10-16T03:15:48;97601.38;;;16.25;100.00
3812;BME280;1921;49.368;11.068;2022-10-16T03:18:14;97623.59;;;16.35;100.00
3812;BME280;1921;49.368;11.068;2022-10-16T03:20:41;97632.06;;;16.37;100.00
3812;BME280;1921;49.368;11.068;2022-10-16T03:23:07;97607.28;;;16.20;100.00
3812;BME280;1921;49.368;11.068;2022-10-16T03:25:33;97607.94;;;16.15;100.00
3812;BME280;1921;49.368;11.068;2022-10-16T03:27:59;97650.03;;;16.47;100.00
3812;BME280;1921;49.368;11.068;2022-10-16T03:30:25;97601.59;;;16.23;100.00
3812;BME280;1921;49.368;11.068;2022-10-16T03:32:51;97625.00;;;16.31;100.00
3812;BME280;1921;49.368;11.068;2022-10-16T03:35:20;97637.44;;;16.49;100.00
3812;BME280;1921;49.368;11.068;2022-10-16T03:37:46;97606.38;;;16.33;100.00
3812;BME280;1921;49.368;11.068;2022-10-16T03:40:13;97640.53;;;16.39;100.00
3812;BME280;1921;49.368;11.068;2022-10-16T03:42:39;97639.59;;;16.34;100.00
3812;BME280;1921;49.368;11.068;2022-10-16T03:45:05;97629.69;;;16.29;100.00
3812;BME280;1921;49.368;11.068;2022-10-16T03:47:31;97636.34;;;16.32;100.00
3812;BME280;1921;49.368;11.068;2022-10-16T03:49:59;97678.97;;;16.47;100.00
3812;BME280;1921;49.368;11.068;2022-10-16T03:52:25;97608.97;;;16.08;100.00
3812;BME280;1921;49.368;11.068;2022-10-16T03:54:51;97668.81;;;16.51;100.00
3812;BME280;1921;49.368;11.068;2022-10-16T03:57:17;97612.16;;;16.17;100.00
3812;BME280;1921;49.368;11.068;2022-10-16T03:59:43;97621.31;;;16.07;100.00
3812;BME280;1921;49.368;11.068;2022-10-16T04:02:09;97678.59;;;16.43;100.00
3812;BME280;1921;49.368;11.068;2022-10-16T04:04:35;97617.66;;;16.08;100.00
3812;BME280;1921;49.368;11.068;2022-10-16T04:07:01;97686.44;;;16.50;100.00
3812;BME280;1921;49.368;11.068;2022-10-16T04:09:27;97601.75;;;16.03;100.00
3812;BME280;1921;49.368;11.068;2022-10-16T04:11:52;97642.94;;;16.16;100.00
3812;BME280;1921;49.368;11.068;2022-10-16T04:14:18;97636.47;;;16.12;100.00
3812;BME280;1921;49.368;11.068;2022-10-16T04:16:44;97629.97;;;16.21;100.00
3812;BME280;1921;49.368;11.068;2022-10-16T04:19:10;97690.28;;;16.54;100.00
3812;BME280;1921;49.368;11.068;2022-10-16T04:21:37;97680.38;;;16.50;100.00
3812;BME280;1921;49.368;11.068;2022-10-16T04:24:03;97649.69;;;16.37;100.00
3812;BME280;1921;49.368;11.068;2022-10-16T04:26:29;97650.47;;;16.37;100.00
3812;BME280;1921;49.368;11.068;2022-10-16T04:28:55;97656.56;;;16.38;100.00
3812;BME280;1921;49.368;11.068;2022-10-16T04:31:21;97678.81;;;16.42;100.00
3812;BME280;1921;49.368;11.068;2022-10-16T04:33:47;97674.41;;;16.36;100.00
3812;BME280;1921;49.368;11.068;2022-10-16T04:36:13;97652.00;;;16.20;100.00
3812;BME280;1921;49.368;11.068;2022-10-16T04:38:39;97621.59;;;15.99;100.00
3812;BME280;1921;49.368;11.068;2022-10-16T04:41:06;97632.06;;;16.06;100.00
3812;BME280;1921;49.368;11.068;2022-10-16T04:43:33;97648.63;;;16.13;100.00
3812;BME280;1921;49.368;11.068;2022-10-16T04:45:59;97676.63;;;16.32;100.00
3812;BME280;1921;49.368;11.068;2022-10-16T04:48:25;97682.34;;;16.29;100.00
3812;BME280;1921;49.368;11.068;2022-10-16T04:50:51;97643.00;;;16.09;100.00
3812;BME280;1921;49.368;11.068;2022-10-16T04:53:16;97655.69;;;16.12;100.00
3812;BME280;1921;49.368;11.068;2022-10-16T04:55:43;97644.38;;;16.12;100.00
3812;BME280;1921;49.368;11.068;2022-10-16T04:58:09;97611.72;;;15.88;100.00
3812;BME280;1921;49.368;11.068;2022-10-16T05:00:35;97653.47;;;16.16;100.00
3812;BME280;1921;49.368;11.068;2022-10-16T05:03:02;97668.81;;;16.19;100.00
3812;BME280;1921;49.368;11.068;2022-10-16T05:05:31;97657.59;;;15.99;100.00
3812;BME280;1921;49.368;11.068;2022-10-16T05:07:57;97684.78;;;16.24;100.00
3812;BME280;1921;49.368;11.068;2022-10-16T05:10:22;97617.84;;;15.75;100.00
3812;BME280;1921;49.368;11.068;2022-10-16T05:12:48;97657.22;;;15.95;100.00
3812;BME280;1921;49.368;11.068;2022-10-16T05:15:14;97652.38;;;15.92;100.00
3812;BME280;1921;49.368;11.068;2022-10-16T05:17:40;97679.63;;;16.04;100.00
3812;BME280;1921;49.368;11.068;2022-10-16T05:20:06;97569.09;;;15.34;100.00
3812;BME280;1921;49.368;11.068;2022-10-16T05:22:32;97655.81;;;15.93;100.00
3812;BME280;1921;49.368;11.068;2022-10-16T05:24:58;97671.78;;;15.98;100.00
3812;BME280;1921;49.368;11.068;2022-10-16T05:27:23;97663.69;;;15.93;100.00
3812;BME280;1921;49.368;11.068;2022-10-16T05:29:49;97694.19;;;16.07;100.00
3812;BME280;1921;49.368;11.068;2022-10-16T05:32:16;97655.88;;;15.79;100.00
3812;BME280;1921;49.368;11.068;2022-10-16T05:34:43;97675.03;;;15.93;100.00
3812;BME280;1921;49.368;11.068;2022-10-16T05:37:09;97670.19;;;15.83;100.00
3812;BME280;1921;49.368;11.068;2022-10-16T05:39:36;97681.09;;;15.94;100.00
3812;BME280;1921;49.368;11.068;2022-10-16T05:42:03;97666.59;;;15.84;100.00
3812;BME280;1921;49.368;11.068;2022-10-16T05:44:29;97716.81;;;16.14;100.00
3812;BME280;1921;49.368;11.068;2022-10-16T05:46:55;97700.09;;;15.96;100.00
3812;BME280;1921;49.368;11.068;2022-10-16T05:49:20;97719.09;;;16.04;100.00
3812;BME280;1921;49.368;11.068;2022-10-16T05:51:46;97711.00;;;16.06;100.00
3812;BME280;1921;49.368;11.068;2022-10-16T05:54:12;97690.44;;;15.83;100.00
3812;BME280;1921;49.368;11.068;2022-10-16T05:56:38;97709.78;;;16.02;100.00
3812;BME280;1921;49.368;11.068;2022-10-16T05:59:04;97716.69;;;16.03;100.00
3812;BME280;1921;49.368;11.068;2022-10-16T06:01:30;97715.41;;;16.12;100.00
3812;BME280;1921;49.368;11.068;2022-10-16T06:03:57;97718.00;;;16.19;100.00
3812;BME280;1921;49.368;11.068;2022-10-16T06:06:25;97722.19;;;16.33;100.00
3812;BME280;1921;49.368;11.068;2022-10-16T06:08:54;97746.59;;;16.53;100.00
3812;BME280;1921;49.368;11.068;2022-10-16T06:11:27;97714.06;;;16.41;100.00
3812;BME280;1921;49.368;11.068;2022-10-16T06:13:56;97737.00;;;16.65;100.00
3812;BME280;1921;49.368;11.068;2022-10-16T06:16:24;97691.38;;;16.40;100.00
3812;BME280;1921;49.368;11.068;2022-10-16T06:18:55;97711.56;;;16.53;100.00
3812;BME280;1921;49.368;11.068;2022-10-16T06:21:24;97701.38;;;16.56;100.00
3812;BME280;1921;49.368;11.068;2022-10-16T06:23:51;97741.16;;;16.80;100.00
3812;BME280;1921;49.368;11.068;2022-10-16T06:26:20;97701.78;;;16.60;100.00
3812;BME280;1921;49.368;11.068;2022-10-16T06:28:46;97698.88;;;16.68;100.00
3812;BME280;1921;49.368;11.068;2022-10-16T06:31:13;97715.81;;;16.85;100.00
3812;BME280;1921;49.368;11.068;2022-10-16T06:33:40;97714.66;;;17.00;100.00
3812;BME280;1921;49.368;11.068;2022-10-16T06:36:10;97731.13;;;17.20;100.00
3812;BME280;1921;49.368;11.068;2022-10-16T06:38:37;97728.81;;;17.30;100.00
3812;BME280;1921;49.368;11.068;2022-10-16T06:41:05;97734.59;;;17.39;100.00
3812;BME280;1921;49.368;11.068;2022-10-16T06:43:31;97720.25;;;17.35;100.00
3812;BME280;1921;49.368;11.068;2022-10-16T06:46:05;97731.47;;;17.48;100.00
3812;BME280;1921;49.368;11.068;2022-10-16T06:48:33;97744.00;;;17.53;99.95
3812;BME280;1921;49.368;11.068;2022-10-16T06:51:08;97772.56;;;17.56;100.00
3812;BME280;1921;49.368;11.068;2022-10-16T06:53:37;97731.06;;;17.52;100.00
3812;BME280;1921;49.368;11.068;2022-10-16T06:56:15;97742.78;;;17.74;100.00
3812;BME280;1921;49.368;11.068;2022-10-16T06:58:42;97735.69;;;17.74;98.98
3812;BME280;1921;49.368;11.068;2022-10-16T07:01:10;97727.47;;;17.64;98.30
3812;BME280;1921;49.368;11.068;2022-10-16T07:03:41;97769.59;;;17.71;98.10
3812;BME280;1921;49.368;11.068;2022-10-16T07:06:10;97764.31;;;17.71;99.12
3812;BME280;1921;49.368;11.068;2022-10-16T07:08:38;97746.41;;;17.55;98.47
3812;BME280;1921;49.368;11.068;2022-10-16T07:11:08;97767.06;;;17.83;98.13
3812;BME280;1921;49.368;11.068;2022-10-16T07:13:39;97800.84;;;18.11;97.15
3812;BME280;1921;49.368;11.068;2022-10-16T07:16:19;97789.94;;;17.89;96.89
3812;BME280;1921;49.368;11.068;2022-10-16T07:18:45;97798.06;;;17.87;97.23
3812;BME280;1921;49.368;11.068;2022-10-16T07:21:22;97807.31;;;17.96;97.09
3812;BME280;1921;49.368;11.068;2022-10-16T07:23:52;97796.16;;;17.94;96.36
3812;BME280;1921;49.368;11.068;2022-10-16T07:26:18;97768.94;;;17.75;96.48
3812;BME280;1921;49.368;11.068;2022-10-16T07:28:44;97789.72;;;17.90;96.58
3812;BME280;1921;49.368;11.068;2022-10-16T07:31:13;97765.91;;;17.54;97.04
3812;BME280;1921;49.368;11.068;2022-10-16T07:33:41;97846.19;;;18.08;96.74
3812;BME280;1921;49.368;11.068;2022-10-16T07:36:11;97791.91;;;17.93;96.52
3812;BME280;1921;49.368;11.068;2022-10-16T07:38:37;97806.28;;;17.97;95.70
3812;BME280;1921;49.368;11.068;2022-10-16T07:41:06;97797.47;;;17.85;96.40
3812;BME280;1921;49.368;11.068;2022-10-16T07:43:33;97843.16;;;18.04;96.75
3812;BME280;1921;49.368;11.068;2022-10-16T07:45:59;97810.66;;;17.85;96.30
3812;BME280;1921;49.368;11.068;2022-10-16T07:48:28;97785.81;;;17.74;96.34
3812;BME280;1921;49.368;11.068;2022-10-16T07:51:03;97790.13;;;17.87;94.73
3812;BME280;1921;49.368;11.068;2022-10-16T07:53:30;97796.09;;;17.83;94.81
3812;BME280;1921;49.368;11.068;2022-10-16T07:56:01;97815.31;;;17.65;96.69
3812;BME280;1921;49.368;11.068;2022-10-16T07:58:28;97785.97;;;17.55;96.64
3812;BME280;1921;49.368;11.068;2022-10-16T08:00:55;97799.31;;;17.60;96.47
3812;BME280;1921;49.368;11.068;2022-10-16T08:03:21;97789.28;;;17.68;96.87
3812;BME280;1921;49.368;11.068;2022-10-16T08:05:46;97782.97;;;17.69;96.99
3812;BME280;1921;49.368;11.068;2022-10-16T08:08:13;97811.41;;;17.92;96.53
3812;BME280;1921;49.368;11.068;2022-10-16T08:10:40;97834.72;;;18.32;96.32
3812;BME280;1921;49.368;11.068;2022-10-16T08:13:06;97815.81;;;18.35;93.98
3812;BME280;1921;49.368;11.068;2022-10-16T08:15:31;97851.50;;;18.74;93.90
3812;BME280;1921;49.368;11.068;2022-10-16T08:18:03;97826.41;;;18.65;92.58
3812;BME280;1921;49.368;11.068;2022-10-16T08:20:33;97846.88;;;19.00;92.12
3812;BME280;1921;49.368;11.068;2022-10-16T08:23:00;97870.56;;;19.48;89.30
3812;BME280;1921;49.368;11.068;2022-10-16T08:25:26;97881.22;;;19.60;87.81
3812;BME280;1921;49.368;11.068;2022-10-16T08:27:52;97825.16;;;19.51;86.92
3812;BME280;1921;49.368;11.068;2022-10-16T08:30:21;97825.66;;;19.72;85.37
3812;BME280;1921;49.368;11.068;2022-10-16T08:32:47;97837.41;;;19.87;85.43
3812;BME280;1921;49.368;11.068;2022-10-16T08:35:14;97837.84;;;19.96;84.38
3812;BME280;1921;49.368;11.068;2022-10-16T08:37:40;97844.75;;;20.09;82.73
3812;BME280;1921;49.368;11.068;2022-10-16T08:40:18;97835.47;;;20.35;82.46
3812;BME280;1921;49.368;11.068;2022-10-16T08:46:13;97857.34;;;21.39;79.01
3812;BME280;1921;49.368;11.068;2022-10-16T08:48:53;97835.78;;;21.36;75.62
3812;BME280;1921;49.368;11.068;2022-10-16T08:51:31;97845.25;;;21.48;75.00
3812;BME280;1921;49.368;11.068;2022-10-16T08:54:36;97875.84;;;21.51;73.99
3812;BME280;1921;49.368;11.068;2022-10-16T08:57:20;97866.50;;;21.48;73.62
3812;BME280;1921;49.368;11.068;2022-10-16T08:59:46;97838.94;;;21.49;74.86
3812;BME280;1921;49.368;11.068;2022-10-16T09:02:37;97862.00;;;21.83;74.16
3812;BME280;1921;49.368;11.068;2022-10-16T09:11:11;97884.19;;;22.93;67.95
3812;BME280;1921;49.368;11.068;2022-10-16T09:13:57;97889.84;;;23.23;67.50
3812;BME280;1921;49.368;11.068;2022-10-16T09:16:35;97895.97;;;23.29;67.04
3812;BME280;1921;49.368;11.068;2022-10-16T09:19:21;97894.00;;;23.46;65.95
3812;BME280;1921;49.368;11.068;2022-10-16T09:21:50;97890.16;;;22.83;67.19
3812;BME280;1921;49.368;11.068;2022-10-16T09:24:23;97857.66;;;22.76;66.21
3812;BME280;1921;49.368;11.068;2022-10-16T09:26:50;97876.81;;;22.78;68.29
3812;BME280;1921;49.368;11.068;2022-10-16T09:29:19;97841.16;;;22.30;68.08
3812;BME280;1921;49.368;11.068;2022-10-16T09:31:51;97883.06;;;22.45;68.68
3812;BME280;1921;49.368;11.068;2022-10-16T09:34:36;97897.22;;;21.95;70.68
3812;BME280;1921;49.368;11.068;2022-10-16T09:37:11;97891.38;;;21.76;71.25
3812;BME280;1921;49.368;11.068;2022-10-16T09:39:53;97876.00;;;21.44;72.70
3812;BME280;1921;49.368;11.068;2022-10-16T09:42:23;97932.53;;;21.45;73.62
3812;BME280;1921;49.368;11.068;2022-10-16T09:44:53;97891.59;;;21.12;74.37
3812;BME280;1921;49.368;11.068;2022-10-16T09:47:25;97892.88;;;21.10;76.07
3812;BME280;1921;49.368;11.068;2022-10-16T09:50:05;97905.38;;;20.97;76.85
3812;BME280;1921;49.368;11.068;2022-10-16T09:52:41;97854.38;;;20.50;77.29
3812;BME280;1921;49.368;11.068;2022-10-16T09:55:16;97856.91;;;20.45;78.69
3812;BME280;1921;49.368;11.068;2022-10-16T09:57:53;97860.94;;;20.48;78.83
3812;BME280;1921;49.368;11.068;2022-10-16T10:00:21;97888.84;;;20.79;79.54
3812;BME280;1921;49.368;11.068;2022-10-16T10:02:47;97890.91;;;21.05;79.20
3812;BME280;1921;49.368;11.068;2022-10-16T10:05:21;97862.16;;;21.76;74.09
3812;BME280;1921;49.368;11.068;2022-10-16T10:08:02;97916.94;;;23.20;69.99
3812;BME280;1921;49.368;11.068;2022-10-16T10:10:42;97880.41;;;23.70;65.38
3812;BME280;1921;49.368;11.068;2022-10-16T10:13:20;97914.47;;;23.68;65.62
3812;BME280;1921;49.368;11.068;2022-10-16T10:15:46;97864.94;;;23.72;64.57
3812;BME280;1921;49.368;11.068;2022-10-16T10:18:21;97871.38;;;24.18;61.60
3812;BME280;1921;49.368;11.068;2022-10-16T10:21:01;97871.34;;;24.13;62.12
3812;BME280;1921;49.368;11.068;2022-10-16T10:23:29;97916.47;;;24.25;61.16
3812;BME280;1921;49.368;11.068;2022-10-16T10:26:11;97918.31;;;24.19;62.69
3812;BME280;1921;49.368;11.068;2022-10-16T10:29:06;97864.94;;;23.67;62.70
3812;BME280;1921;49.368;11.068;2022-10-16T10:31:50;97907.59;;;23.77;63.74
3812;BME280;1921;49.368;11.068;2022-10-16T10:34:45;97914.09;;;23.91;63.65
3812;BME280;1921;49.368;11.068;2022-10-16T10:41:10;97920.63;;;24.05;63.99
3812;BME280;1921;49.368;11.068;2022-10-16T10:46:41;97893.50;;;24.61;61.53
3812;BME280;1921;49.368;11.068;2022-10-16T10:49:31;97926.03;;;25.46;57.84
3812;BME280;1921;49.368;11.068;2022-10-16T10:52:59;97916.34;;;25.14;59.41
3812;BME280;1921;49.368;11.068;2022-10-16T10:55:55;97897.16;;;25.22;57.92
3812;BME280;1921;49.368;11.068;2022-10-16T10:58:39;97903.25;;;25.08;58.76
3812;BME280;1921;49.368;11.068;2022-10-16T11:01:21;97872.34;;;25.42;57.20
3812;BME280;1921;49.368;11.068;2022-10-16T11:07:11;97926.56;;;25.38;57.58
3812;BME280;1921;49.368;11.068;2022-10-16T11:09:48;97880.00;;;24.98;58.05
3812;BME280;1921;49.368;11.068;2022-10-16T11:12:39;97890.38;;;24.94;58.44
3812;BME280;1921;49.368;11.068;2022-10-16T11:15:33;97920.63;;;25.10;58.50
3812;BME280;1921;49.368;11.068;2022-10-16T11:18:16;97921.88;;;24.92;59.00
3812;BME280;1921;49.368;11.068;2022-10-16T11:21:00;97919.22;;;24.92;60.08
3812;BME280;1921;49.368;11.068;2022-10-16T11:23:43;97882.56;;;24.67;60.78
3812;BME280;1921;49.368;11.068;2022-10-16T11:26:19;97883.66;;;24.66;60.38
3812;BME280;1921;49.368;11.068;2022-10-16T11:28:50;97880.97;;;24.71;60.28
3812;BME280;1921;49.368;11.068;2022-10-16T11:34:34;97929.22;;;25.43;59.81
3812;BME280;1921;49.368;11.068;2022-10-16T11:37:30;97917.78;;;25.88;58.81
3812;BME280;1921;49.368;11.068;2022-10-16T11:40:16;97871.53;;;25.67;57.09
3812;BME280;1921;49.368;11.068;2022-10-16T11:42:58;97922.53;;;26.47;56.07
3812;BME280;1921;49.368;11.068;2022-10-16T11:45:43;97888.03;;;26.25;54.08
3812;BME280;1921;49.368;11.068;2022-10-16T11:48:46;97900.16;;;26.88;54.81
3812;BME280;1921;49.368;11.068;2022-10-16T11:54:38;97923.88;;;28.94;48.37
3812;BME280;1921;49.368;11.068;2022-10-16T11:57:23;97811.25;;;28.41;48.32
3812;BME280;1921;49.368;11.068;2022-10-16T12:05:22;97921.47;;;28.68;47.95
3812;BME280;1921;49.368;11.068;2022-10-16T12:08:13;97886.94;;;28.38;48.22
3812;BME280;1921;49.368;11.068;2022-10-16T12:10:43;97915.50;;;27.66;50.26
3812;BME280;1921;49.368;11.068;2022-10-16T12:18:40;97915.09;;;26.99;52.87
3812;BME280;1921;49.368;11.068;2022-10-16T12:21:07;97897.72;;;26.96;52.45
3812;BME280;1921;49.368;11.068;2022-10-16T12:23:38;97863.09;;;26.55;52.71
3812;BME280;1921;49.368;11.068;2022-10-16T12:26:05;97901.03;;;26.68;54.57
3812;BME280;1921;49.368;11.068;2022-10-16T12:28:32;97872.53;;;26.97;51.61
3812;BME280;1921;49.368;11.068;2022-10-16T12:31:07;97898.84;;;27.34;49.87
3812;BME280;1921;49.368;11.068;2022-10-16T12:33:58;97928.78;;;27.81;49.41
3812;BME280;1921;49.368;11.068;2022-10-16T12:36:30;97861.00;;;27.41;48.74
3812;BME280;1921;49.368;11.068;2022-10-16T12:38:57;97910.25;;;28.13;47.53
3812;BME280;1921;49.368;11.068;2022-10-16T12:41:35;97871.44;;;27.43;49.52
3812;BME280;1921;49.368;11.068;2022-10-16T12:44:03;97887.06;;;27.30;50.11
3812;BME280;1921;49.368;11.068;2022-10-16T12:51:39;97917.25;;;27.46;50.01
3812;BME280;1921;49.368;11.068;2022-10-16T12:54:20;97898.53;;;28.04;48.55
3812;BME280;1921;49.368;11.068;2022-10-16T13:09:33;97919.19;;;29.94;43.33
3812;BME280;1921;49.368;11.068;2022-10-16T13:13:03;97910.00;;;29.06;45.01
3812;BME280;1921;49.368;11.068;2022-10-16T13:15:37;97925.06;;;29.44;44.56
3812;BME280;1921;49.368;11.068;2022-10-16T13:18:40;97930.69;;;29.81;43.07
3812;BME280;1921;49.368;11.068;2022-10-16T13:21:30;97934.41;;;29.98;43.41
3812;BME280;1921;49.368;11.068;2022-10-16T13:27:50;97927.16;;;29.47;43.16
3812;BME280;1921;49.368;11.068;2022-10-16T13:30:24;97897.31;;;28.21;46.57
3812;BME280;1921;49.368;11.068;2022-10-16T13:33:03;97895.03;;;27.80;47.30
3812;BME280;1921;49.368;11.068;2022-10-16T13:35:33;97932.22;;;27.47;49.10
3812;BME280;1921;49.368;11.068;2022-10-16T13:40:37;97930.19;;;27.34;49.82
3812;BME280;1921;49.368;11.068;2022-10-16T13:43:13;97903.56;;;27.03;49.84
3812;BME280;1921;49.368;11.068;2022-10-16T13:45:39;97877.09;;;26.97;49.84
3812;BME280;1921;49.368;11.068;2022-10-16T13:48:09;97912.72;;;26.87;51.12
3812;BME280;1921;49.368;11.068;2022-10-16T13:50:37;97928.28;;;26.85;51.04
3812;BME280;1921;49.368;11.068;2022-10-16T13:53:13;97944.44;;;27.19;49.66
3812;BME280;1921;49.368;11.068;2022-10-16T13:55:39;97942.00;;;27.28;50.18
3812;BME280;1921;49.368;11.068;2022-10-16T13:58:14;97916.91;;;27.58;48.47
3812;BME280;1921;49.368;11.068;2022-10-16T14:00:51;97948.84;;;28.17;47.46
3812;BME280;1921;49.368;11.068;2022-10-16T14:03:18;97933.34;;;28.62;46.35
3812;BME280;1921;49.368;11.068;2022-10-16T14:05:54;97908.88;;;28.88;44.74
3812;BME280;1921;49.368;11.068;2022-10-16T14:08:22;97820.94;;;28.80;42.97
3812;BME280;1921;49.368;11.068;2022-10-16T14:10:52;97959.06;;;29.73;42.94
3812;BME280;1921;49.368;11.068;2022-10-16T14:13:45;97909.38;;;29.33;43.51
3812;BME280;1921;49.368;11.068;2022-10-16T14:16:18;97918.06;;;29.43;43.77
3812;BME280;1921;49.368;11.068;2022-10-16T14:19:06;97923.44;;;29.06;43.45
3812;BME280;1921;49.368;11.068;2022-10-16T14:21:33;97955.25;;;29.17;42.36
3812;BME280;1921;49.368;11.068;2022-10-16T14:23:59;97968.31;;;29.05;43.14
3812;BME280;1921;49.368;11.068;2022-10-16T14:26:42;97925.13;;;29.02;43.19
3812;BME280;1921;49.368;11.068;2022-10-16T14:29:18;97950.09;;;29.77;41.71
3812;BME280;1921;49.368;11.068;2022-10-16T14:34:38;97937.84;;;30.50;40.16
3812;BME280;1921;49.368;11.068;2022-10-16T14:37:20;97919.00;;;30.78;38.71
3812;BME280;1921;49.368;11.068;2022-10-16T14:39:52;97910.16;;;31.14;37.34
3812;BME280;1921;49.368;11.068;2022-10-16T14:42:21;97917.06;;;31.06;38.46
3812;BME280;1921;49.368;11.068;2022-10-16T14:44:51;97884.88;;;30.73;38.10
3812;BME280;1921;49.368;11.068;2022-10-16T14:47:21;97920.81;;;30.09;39.61
3812;BME280;1921;49.368;11.068;2022-10-16T14:49:51;97928.25;;;29.28;40.97